Time;durP1;ratioP1;P1;durP2;ratioP2;P2;SDS_P1;SDS_P2;PMS_P1;PMS_P2;Temp;Humidity;BMP_temperature;BMP_pressure;BME280_temperature;BME280_humidity;BME280_pressure;Samples;Min_cycle;Max_cycle;Signal;HPM_P1;HPM_P2
2023/07/26 00:00:35;;;;;;;2.15;1.85;;;14.50;99.90;;;14.63;100.00;100545.69;5290025;27;20043;-51
2023/07/26 00:03:08;;;;;;;2.63;1.67;;;14.50;99.90;;;14.62;100.00;100549.19;5289969;27;20051;-52
2023/07/26 00:05:40;;;;;;;2.42;1.70;;;14.50;99.90;;;14.65;100.00;100543.97;5289869;27;20133;-51
2023/07/26 00:08:13;;;;;;;3.20;1.85;;;14.50;99.90;;;14.69;100.00;100545.78;5289828;27;20047;-52
2023/07/26 00:10:46;;;;;;;2.90;2.00;;;14.50;99.90;;;14.72;100.00;100561.56;5289700;27;20047;-48
2023/07/26 00:13:20;;;;;;;3.42;1.80;;;14.50;99.90;;;14.76;100.00;100568.63;5290068;27;20076;-50
2023/07/26 00:15:52;;;;;;;2.63;1.92;;;14.60;99.90;;;14.80;100.00;100575.69;5289693;27;20043;-51
2023/07/26 00:18:28;;;;;;;3.75;1.83;;;14.60;99.90;;;14.87;100.00;100571.41;5289412;27;20047;-52
2023/07/26 00:21:00;;;;;;;1.80;1.65;;;14.70;99.90;;;14.95;100.00;100558.38;5289587;27;20047;-52
2023/07/26 00:23:33;;;;;;;2.45;2.15;;;14.70;99.90;;;15.03;100.00;100562.88;5289179;27;20564;-50
2023/07/26 00:26:05;;;;;;;2.15;1.95;;;14.80;99.90;;;15.09;100.00;100557.69;5268138;28;20787;-52
2023/07/26 00:28:39;;;;;;;2.72;1.90;;;14.90;99.90;;;15.14;100.00;100555.13;5268254;28;20055;-49
2023/07/26 00:31:12;;;;;;;1.83;1.70;;;14.90;99.90;;;15.20;100.00;100560.47;5268316;28;20130;-50
2023/07/26 00:33:44;;;;;;;2.15;1.70;;;15.00;99.90;;;15.22;100.00;100549.97;5284812;27;20047;-52
2023/07/26 00:36:20;;;;;;;2.55;1.90;;;15.00;99.90;;;15.23;100.00;100554.34;5268297;28;20043;-52
2023/07/26 00:38:54;;;;;;;2.47;1.90;;;15.00;99.90;;;15.24;100.00;100558.75;5268133;28;20044;-51
2023/07/26 00:41:26;;;;;;;1.92;1.63;;;15.10;99.90;;;15.25;100.00;100558.75;5268076;28;20055;-50
2023/07/26 00:44:00;;;;;;;3.30;2.10;;;15.00;99.90;;;15.27;100.00;100561.44;5267903;28;20454;-52
2023/07/26 00:46:33;;;;;;;3.45;2.00;;;15.10;99.90;;;15.28;100.00;100565.81;5276104;27;20047;-52
2023/07/26 00:49:06;;;;;;;2.72;2.17;;;15.10;99.90;;;15.29;100.00;100570.19;5307389;27;20035;-52
2023/07/26 00:51:39;;;;;;;3.00;2.00;;;15.10;99.90;;;15.28;100.00;100560.56;5288579;27;20050;-50
2023/07/26 00:54:12;;;;;;;2.40;1.73;;;15.10;99.90;;;15.27;100.00;100570.19;5288930;27;20043;-51
2023/07/26 00:56:44;;;;;;;2.70;1.92;;;15.10;99.90;;;15.27;100.00;100567.56;5287608;27;20047;-52
2023/07/26 00:59:18;;;;;;;2.08;1.80;;;15.10;99.90;;;15.28;100.00;100569.31;5267815;28;20070;-50
2023/07/26 01:01:50;;;;;;;2.33;1.83;;;15.10;99.90;;;15.27;100.00;100567.56;5278305;27;20057;-51
2023/07/26 01:04:23;;;;;;;2.63;1.85;;;15.10;99.90;;;15.27;100.00;100566.69;5288853;27;20468;-51
2023/07/26 01:07:07;;;;;;;2.50;1.80;;;15.10;99.90;;;15.29;100.00;100571.06;5288666;27;20049;-51
2023/07/26 01:09:47;;;;;;;2.95;2.15;;;15.10;99.90;;;15.30;100.00;100566.69;5288760;27;20666;-49
2023/07/26 01:12:31;;;;;;;4.22;2.00;;;15.10;99.90;;;15.32;100.00;100560.63;5288695;27;20043;-49
2023/07/26 01:15:09;;;;;;;3.75;2.38;;;15.10;99.90;;;15.31;100.00;100564.09;5280153;28;20050;-51
2023/07/26 01:17:41;;;;;;;3.22;2.30;;;15.10;99.90;;;15.31;100.00;100571.97;5288316;28;20043;-49
2023/07/26 01:20:14;;;;;;;3.35;2.28;;;15.10;99.90;;;15.32;100.00;100571.13;5288390;27;20075;-51
2023/07/26 01:22:51;;;;;;;4.82;2.10;;;15.10;99.90;;;15.32;100.00;100555.38;5278542;28;20047;-50
2023/07/26 01:25:24;;;;;;;3.30;2.20;;;15.10;99.90;;;15.33;100.00;100570.25;5274021;28;20058;-49
2023/07/26 01:27:56;;;;;;;2.33;2.00;;;15.10;99.90;;;15.33;100.00;100567.63;5288436;28;20047;-49
2023/07/26 01:30:32;;;;;;;2.40;2.00;;;15.10;99.90;;;15.33;100.00;100557.13;5272540;28;20117;-50
2023/07/26 01:33:07;;;;;;;4.22;2.03;;;15.10;99.90;;;15.32;100.00;100560.63;5284271;28;20458;-51
2023/07/26 01:35:41;;;;;;;4.05;2.28;;;15.10;99.90;;;15.31;100.00;100561.44;5284481;28;20044;-51
2023/07/26 01:38:16;;;;;;;3.00;2.25;;;15.10;99.90;;;15.31;100.00;100569.34;5288318;28;20047;-51
2023/07/26 01:40:50;;;;;;;4.05;2.40;;;15.10;99.90;;;15.30;100.00;100564.94;5271540;28;20479;-49
2023/07/26 01:43:22;;;;;;;4.80;2.30;;;15.10;99.90;;;15.32;100.00;100565.88;5306819;28;20062;-48
2023/07/26 01:45:56;;;;;;;2.60;2.15;;;15.10;99.90;;;15.31;100.00;100563.19;5288127;28;20508;-52
2023/07/26 01:48:31;;;;;;;2.70;1.80;;;15.10;99.90;;;15.31;100.00;100561.44;5288660;28;20130;-51
2023/07/26 01:51:04;;;;;;;3.25;1.73;;;15.10;99.90;;;15.31;100.00;100563.19;5288343;28;20058;-51
2023/07/26 01:53:38;;;;;;;3.92;2.20;;;15.10;99.90;;;15.30;100.00;100562.31;5288203;28;20047;-53
2023/07/26 01:56:10;;;;;;;2.35;1.83;;;15.10;99.90;;;15.31;100.00;100565.81;5288314;28;20126;-50
2023/07/26 01:58:46;;;;;;;3.22;1.85;;;15.10;99.90;;;15.31;100.00;100564.09;5288325;28;20050;-49
2023/07/26 02:01:18;;;;;;;4.97;1.90;;;15.10;99.90;;;15.31;100.00;100564.09;5274312;28;20047;-51
2023/07/26 02:03:51;;;;;;;3.50;1.95;;;15.10;99.90;;;15.31;100.00;100564.09;5287720;27;20141;-49
2023/07/26 02:06:23;;;;;;;2.17;1.70;;;15.10;99.90;;;15.32;100.00;100563.25;5292110;27;20554;-49
2023/07/26 02:08:57;;;;;;;2.50;2.08;;;15.10;99.90;;;15.32;100.00;100565.88;5272937;28;20052;-52
2023/07/26 02:11:30;;;;;;;2.03;1.70;;;15.10;99.90;;;15.33;100.00;100567.63;5271192;28;20071;-51
2023/07/26 02:14:02;;;;;;;2.90;1.95;;;15.10;99.90;;;15.33;100.00;100562.38;5270894;28;20496;-52
2023/07/26 02:16:34;;;;;;;2.45;2.00;;;15.10;99.90;;;15.34;100.00;100568.50;5270917;28;20059;-51
2023/07/26 02:19:07;;;;;;;2.15;1.90;;;15.20;99.90;;;15.35;100.00;100565.00;5270844;28;20052;-51
2023/07/26 02:21:39;;;;;;;2.67;1.83;;;15.20;99.90;;;15.35;100.00;100565.88;5270886;28;20097;-51
2023/07/26 02:24:13;;;;;;;3.42;1.83;;;15.10;99.90;;;15.37;100.00;100564.16;5274977;27;20096;-52
2023/07/26 02:26:45;;;;;;;1.80;1.60;;;15.20;99.90;;;15.38;100.00;100565.03;5291844;27;20050;-51
2023/07/26 02:29:17;;;;;;;1.92;1.70;;;15.20;99.90;;;15.38;100.00;100570.28;5291759;27;20039;-51
2023/07/26 02:31:50;;;;;;;2.38;2.00;;;15.20;99.90;;;15.36;100.00;100572.91;5273633;28;20504;-49
2023/07/26 02:34:22;;;;;;;1.42;1.33;;;15.20;99.90;;;15.36;100.00;100569.41;5270516;28;20727;-50
2023/07/26 02:36:55;;;;;;;2.58;2.00;;;15.20;99.90;;;15.35;100.00;100579.03;5290673;27;20040;-52
2023/07/26 02:39:28;;;;;;;2.33;1.88;;;15.20;99.90;;;15.36;100.00;100580.78;5291531;27;20047;-51
2023/07/26 02:42:01;;;;;;;2.70;1.80;;;15.20;99.90;;;15.35;100.00;100575.53;5291730;27;20411;-50
2023/07/26 02:44:33;;;;;;;2.53;1.90;;;15.20;99.90;;;15.35;100.00;100572.91;5291343;27;20043;-52
2023/07/26 02:47:06;;;;;;;2.70;2.00;;;15.20;99.90;;;15.34;100.00;100573.75;5291288;27;20049;-53
2023/07/26 02:49:38;;;;;;;2.33;2.03;;;15.10;99.90;;;15.33;100.00;100567.63;5291418;27;20039;-49
2023/07/26 02:52:12;;;;;;;2.58;2.03;;;15.20;99.90;;;15.33;100.00;100575.50;5291526;27;20042;-50
2023/07/26 02:54:49;;;;;;;1.77;1.60;;;15.10;99.90;;;15.35;100.00;100570.25;5291752;27;20047;-51
2023/07/26 02:57:21;;;;;;;2.88;1.95;;;15.10;99.90;;;15.32;100.00;100565.88;5291331;27;20057;-51
2023/07/26 02:59:53;;;;;;;3.08;2.13;;;15.10;99.90;;;15.30;100.00;100566.69;5291037;27;20503;-50
2023/07/26 03:02:26;;;;;;;2.15;1.90;;;15.10;99.90;;;15.29;100.00;100565.81;5291097;27;20441;-51
2023/07/26 03:05:02;;;;;;;2.28;1.90;;;15.10;99.90;;;15.28;100.00;100569.31;5291109;27;20131;-51
2023/07/26 03:07:34;;;;;;;2.50;1.95;;;15.10;99.90;;;15.28;100.00;100573.69;5309498;27;20495;-53
2023/07/26 03:10:09;;;;;;;3.47;2.20;;;15.10;99.90;;;15.25;100.00;100576.25;5290960;27;20500;-51
2023/07/26 03:12:42;;;;;;;2.90;2.00;;;15.10;99.90;;;15.21;100.00;100580.59;5290960;27;20057;-49
2023/07/26 03:15:14;;;;;;;2.63;2.08;;;15.10;99.90;;;15.20;100.00;100570.97;5290753;27;20515;-53
2023/07/26 03:17:47;;;;;;;3.17;2.20;;;15.00;99.90;;;15.20;100.00;100579.72;5291178;27;20035;-53
2023/07/26 03:20:20;;;;;;;3.72;2.30;;;15.00;99.90;;;15.21;100.00;100577.97;5290693;27;20491;-50
2023/07/26 03:22:53;;;;;;;3.67;2.00;;;15.00;99.90;;;15.23;100.00;100581.50;5290661;27;20042;-51
2023/07/26 03:25:26;;;;;;;2.88;2.03;;;15.00;99.90;;;15.23;100.00;100586.75;5290959;27;20043;-51
2023/07/26 03:27:59;;;;;;;3.92;2.20;;;15.00;99.90;;;15.22;100.00;100586.75;5290534;27;20131;-51
2023/07/26 03:30:31;;;;;;;2.22;1.80;;;15.00;99.90;;;15.21;100.00;100598.97;5290663;27;20104;-53
2023/07/26 03:33:04;;;;;;;2.05;1.77;;;15.00;99.90;;;15.22;100.00;100589.38;5290507;27;20043;-51
2023/07/26 03:35:37;;;;;;;2.13;1.80;;;15.00;99.90;;;15.20;100.00;100584.09;5290384;27;20100;-50
2023/07/26 03:38:09;;;;;;;2.28;2.00;;;15.00;99.90;;;15.20;100.00;100589.34;5290424;27;20419;-51
2023/07/26 03:40:43;;;;;;;1.70;1.60;;;15.00;99.90;;;15.18;100.00;100591.06;5308741;27;20415;-51
2023/07/26 03:43:15;;;;;;;3.35;2.25;;;15.00;99.90;;;15.18;100.00;100588.44;5290057;27;20053;-51
2023/07/26 03:45:48;;;;;;;3.08;1.77;;;15.00;99.90;;;15.18;100.00;100593.69;5290102;27;20047;-52
2023/07/26 03:48:20;;;;;;;2.20;1.80;;;15.00;99.90;;;15.18;100.00;100591.06;5285608;28;20047;-53
2023/07/26 03:50:54;;;;;;;2.20;1.80;;;15.00;99.90;;;15.18;100.00;100588.44;5269142;28;20044;-51
2023/07/26 03:53:30;;;;;;;2.60;2.00;;;15.00;99.90;;;15.19;100.00;100592.81;5269022;28;20044;-51
2023/07/26 03:56:04;;;;;;;1.98;1.88;;;15.00;99.90;;;15.19;100.00;100590.19;5268989;28;20055;-51
2023/07/26 03:58:36;;;;;;;3.05;1.90;;;15.00;99.90;;;15.22;100.00;100585.00;5268786;28;20130;-51
2023/07/26 04:01:09;;;;;;;2.40;2.10;;;15.00;99.90;;;15.23;100.00;100592.00;5268742;28;20516;-51
2023/07/26 04:03:42;;;;;;;2.53;2.13;;;15.00;99.90;;;15.24;100.00;100591.13;5268812;28;20138;-50
2023/07/26 04:06:14;;;;;;;3.83;2.33;;;15.10;99.90;;;15.25;100.00;100594.63;5268551;28;20054;-51
2023/07/26 04:08:47;;;;;;;5.35;2.58;;;15.10;99.90;;;15.26;100.00;100597.31;5268850;28;20434;-51
2023/07/26 04:11:21;;;;;;;3.53;1.92;;;15.10;99.90;;;15.27;100.00;100593.81;5268649;28;20048;-50
2023/07/26 04:13:53;;;;;;;3.03;1.98;;;15.10;99.90;;;15.29;100.00;100592.06;5268398;28;20055;-52
2023/07/26 04:16:25;;;;;;;4.20;2.08;;;15.10;99.90;;;15.28;100.00;100592.06;5268472;28;20549;-49
2023/07/26 04:18:58;;;;;;;2.25;1.88;;;15.10;99.90;;;15.28;100.00;100600.81;5284288;27;20043;-50
2023/07/26 04:21:30;;;;;;;3.03;2.03;;;15.10;99.90;;;15.28;100.00;100598.19;5267941;28;20044;-49
2023/07/26 04:24:02;;;;;;;2.00;1.65;;;15.10;99.90;;;15.27;100.00;100601.69;5285905;27;20111;-50
2023/07/26 04:26:36;;;;;;;1.77;1.48;;;15.10;99.90;;;15.28;100.00;100600.81;5273422;28;20377;-49
2023/07/26 04:29:12;;;;;;;2.28;1.92;;;15.10;99.90;;;15.30;100.00;100609.59;5278510;27;20449;-49
2023/07/26 04:31:44;;;;;;;2.35;1.88;;;15.10;99.90;;;15.28;100.00;100606.06;5280187;27;20043;-51
2023/07/26 04:34:16;;;;;;;2.10;1.88;;;15.10;99.90;;;15.28;100.00;100599.94;5267708;28;20050;-49
2023/07/26 04:36:49;;;;;;;2.20;2.00;;;15.10;99.90;;;15.26;100.00;100607.81;5276152;28;20048;-50
2023/07/26 04:39:21;;;;;;;2.15;1.92;;;15.10;99.90;;;15.24;100.00;100608.63;5267493;28;20535;-49
2023/07/26 04:41:55;;;;;;;2.15;1.90;;;15.10;99.90;;;15.24;100.00;100609.50;5267242;28;20048;-49
2023/07/26 04:44:27;;;;;;;3.40;2.20;;;15.10;99.90;;;15.25;100.00;100618.25;5288223;27;20039;-49
2023/07/26 04:47:00;;;;;;;2.25;1.92;;;15.10;99.90;;;15.26;100.00;100614.78;5288430;27;20080;-49
2023/07/26 04:49:32;;;;;;;3.15;2.28;;;15.10;99.90;;;15.26;100.00;100623.56;5280157;27;20073;-49
2023/07/26 04:52:05;;;;;;;4.10;2.05;;;15.10;99.90;;;15.24;100.00;100625.25;5286430;27;20055;-48
2023/07/26 04:54:38;;;;;;;2.83;2.25;;;15.10;99.90;;;15.24;100.00;100620.00;5267170;28;20052;-49
2023/07/26 04:57:12;;;;;;;2.47;1.90;;;15.10;99.90;;;15.26;100.00;100622.66;5269764;27;20044;-49
2023/07/26 04:59:44;;;;;;;1.88;1.70;;;15.10;99.90;;;15.28;100.00;100634.09;5280010;27;20511;-50
2023/07/26 05:02:16;;;;;;;1.88;1.77;;;15.10;99.90;;;15.30;100.00;100634.97;5279370;27;20047;-48
2023/07/26 05:04:49;;;;;;;3.05;1.73;;;15.10;99.90;;;15.34;100.00;100637.66;5288112;27;20393;-49
2023/07/26 05:07:21;;;;;;;3.60;1.95;;;15.20;99.90;;;15.34;100.00;100640.28;5275777;27;20046;-49
2023/07/26 05:09:53;;;;;;;3.92;2.10;;;15.20;99.90;;;15.33;100.00;100641.16;5275495;28;20074;-52
2023/07/26 05:12:27;;;;;;;2.90;2.30;;;15.20;99.90;;;15.34;100.00;100642.91;5271092;27;20100;-50
2023/07/26 05:15:02;;;;;;;2.80;1.90;;;15.10;99.90;;;15.34;100.00;100647.28;5279196;27;20057;-50
2023/07/26 05:17:35;;;;;;;2.60;2.10;;;15.20;99.90;;;15.37;100.00;100647.31;5287894;27;20043;-48
2023/07/26 05:20:09;;;;;;;2.85;1.90;;;15.10;99.90;;;15.41;100.00;100644.75;5271524;27;20051;-49
2023/07/26 05:22:41;;;;;;;2.30;1.95;;;15.20;99.90;;;15.44;100.00;100646.53;5281794;28;20047;-48
2023/07/26 05:25:13;;;;;;;2.13;1.80;;;15.30;99.90;;;15.48;100.00;100646.59;5284256;28;20523;-48
2023/07/26 05:27:47;;;;;;;2.78;1.85;;;15.30;99.90;;;15.48;100.00;100646.59;5275563;28;20554;-49
2023/07/26 05:30:20;;;;;;;2.80;2.08;;;15.30;99.90;;;15.51;100.00;100650.13;5267285;28;20050;-48
2023/07/26 05:32:52;;;;;;;2.65;2.38;;;15.40;99.90;;;15.53;100.00;100644.03;5275215;28;20077;-48
2023/07/26 05:35:24;;;;;;;2.22;2.03;;;15.40;99.90;;;15.58;100.00;100638.81;5279589;28;20070;-49
2023/07/26 05:37:57;;;;;;;2.05;1.80;;;15.40;99.90;;;15.64;100.00;100646.81;5273761;28;20048;-48
2023/07/26 05:40:29;;;;;;;4.10;2.13;;;15.50;99.90;;;15.72;100.00;100637.28;5275874;27;20095;-48
2023/07/26 05:43:03;;;;;;;2.22;1.85;;;15.50;99.90;;;15.74;100.00;100646.06;5283245;27;20039;-49
2023/07/26 05:45:35;;;;;;;3.40;2.10;;;15.50;99.90;;;15.75;100.00;100647.81;5285210;27;20054;-48
2023/07/26 05:48:08;;;;;;;2.35;2.03;;;15.50;99.90;;;15.78;100.00;100644.34;5292185;27;20039;-48
2023/07/26 05:50:40;;;;;;;2.15;1.95;;;15.60;99.90;;;15.84;100.00;100654.91;5286178;28;20050;-48
2023/07/26 05:53:16;;;;;;;3.55;2.03;;;15.70;99.90;;;15.87;100.00;100649.72;5273329;27;20051;-48
2023/07/26 05:55:48;;;;;;;2.30;1.90;;;15.70;99.90;;;15.91;100.00;100657.66;5283713;27;20092;-49
2023/07/26 05:58:22;;;;;;;1.80;1.70;;;15.70;99.90;;;15.96;100.00;100655.94;5271886;28;20093;-48
2023/07/26 06:00:55;;;;;;;2.65;2.10;;;15.80;99.90;;;16.02;100.00;100660.38;5279070;27;20050;-49
2023/07/26 06:03:27;;;;;;;2.45;2.00;;;15.80;99.90;;;16.09;100.00;100650.81;5270890;28;20073;-48
2023/07/26 06:05:59;;;;;;;2.13;2.00;;;15.80;99.90;;;16.17;100.00;100659.66;5287182;27;20088;-49
2023/07/26 06:08:32;;;;;;;2.88;2.03;;;15.90;99.90;;;16.25;100.00;100658.00;5283383;27;20403;-48
2023/07/26 06:11:04;;;;;;;2.58;2.13;;;16.00;99.90;;;16.33;100.00;100656.31;5274041;27;20527;-48
2023/07/26 06:13:38;;;;;;;2.50;2.30;;;16.00;99.90;;;16.38;100.00;100659.88;5285252;28;20051;-47
2023/07/26 06:16:11;;;;;;;;;;;16.10;99.90;;;16.41;100.00;100659.00;5287613;27;20054;-48
2023/07/26 06:18:43;;;;;;;3.95;2.42;;;16.10;99.90;;;16.46;100.00;100652.91;5278679;28;19923;-50
2023/07/26 06:21:17;;;;;;;3.80;2.40;;;16.20;99.90;;;16.64;100.00;100656.59;5280393;27;20048;-48
2023/07/26 06:23:49;;;;;;;3.95;2.60;;;16.30;99.90;;;16.87;100.00;100649.75;5281948;27;20623;-50
2023/07/26 06:26:22;;;;;;;3.50;2.63;;;16.50;99.90;;;17.07;100.00;100653.38;5273919;27;20046;-50
2023/07/26 06:28:56;;;;;;;3.67;2.50;;;16.70;99.90;;;17.23;100.00;100656.13;5274881;28;20428;-49
2023/07/26 06:31:28;;;;;;;6.97;2.72;;;16.80;99.90;;;17.29;100.00;100656.16;5278449;28;20413;-49
2023/07/26 06:34:01;;;;;;;2.95;2.25;;;17.00;99.90;;;17.32;100.00;100658.81;5304464;27;20043;-48
2023/07/26 06:36:33;;;;;;;4.18;2.35;;;17.00;99.90;;;17.33;100.00;100660.56;5278164;28;20403;-49
2023/07/26 06:39:05;;;;;;;4.60;2.50;;;17.00;99.90;;;17.33;100.00;100664.06;5269658;28;20055;-49
2023/07/26 06:41:38;;;;;;;3.90;2.72;;;17.00;99.90;;;17.39;100.00;100665.88;5269972;28;20531;-50
2023/07/26 06:44:12;;;;;;;3.95;2.67;;;17.10;99.90;;;17.52;100.00;100666.81;5269152;28;20147;-49
2023/07/26 06:46:44;;;;;;;3.03;2.33;;;17.10;99.90;;;17.71;100.00;100667.75;5281559;27;20058;-50
2023/07/26 06:49:17;;;;;;;4.20;2.40;;;17.30;99.90;;;17.93;100.00;100663.47;5289656;27;20043;-49
2023/07/26 06:51:52;;;;;;;3.83;2.40;;;17.50;99.90;;;18.15;100.00;100666.16;5290408;27;20262;-49
2023/07/26 06:54:24;;;;;;;3.80;2.33;;;17.70;99.90;;;18.38;100.00;100673.22;5281965;27;20586;-48
2023/07/26 06:56:57;;;;;;;3.28;1.85;;;17.80;99.90;;;18.59;100.00;100670.63;5274637;28;20157;-49
2023/07/26 06:59:31;;;;;;;2.58;2.30;;;18.10;99.90;;;18.80;100.00;100671.53;5279070;27;20039;-49
2023/07/26 07:02:06;;;;;;;4.07;1.90;;;18.30;99.90;;;18.97;100.00;100669.72;5293726;27;20091;-50
2023/07/26 07:04:39;;;;;;;2.90;1.88;;;18.50;99.90;;;19.05;100.00;100673.25;5282832;27;20077;-49
2023/07/26 07:07:14;;;;;;;2.88;1.90;;;18.60;99.90;;;19.09;100.00;100674.97;5299066;27;20050;-49
2023/07/26 07:09:47;;;;;;;3.08;1.70;;;18.60;99.90;;;19.14;100.00;100673.22;5276029;27;20108;-49
2023/07/26 07:12:19;;;;;;;5.07;2.05;;;18.70;99.90;;;19.16;100.00;100674.09;5289332;27;20043;-49
2023/07/26 07:14:53;;;;;;;2.40;1.90;;;18.80;99.90;;;19.21;100.00;100669.66;5281935;27;20067;-49
2023/07/26 07:17:29;;;;;;;;;;;18.80;99.90;;;19.31;100.00;100674.94;5278795;28;20047;-49
2023/07/26 07:20:02;;;;;;;2.30;1.75;;;18.90;99.90;;;19.45;100.00;100671.38;5268581;28;19927;-48
2023/07/26 07:22:34;;;;;;;3.30;1.73;;;19.00;99.90;;;19.51;100.00;100681.06;5268360;28;20100;-48
2023/07/26 07:25:10;;;;;;;3.53;1.92;;;19.10;99.90;;;19.57;100.00;100673.09;5284901;27;20054;-49
2023/07/26 07:27:42;;;;;;;2.40;1.70;;;19.10;99.90;;;19.76;100.00;100674.81;5268012;28;20452;-49
2023/07/26 07:30:16;;;;;;;3.00;1.77;;;19.30;99.90;;;19.94;100.00;100683.53;5268027;28;20048;-48
2023/07/26 07:32:48;;;;;;;4.47;2.10;;;19.40;99.90;;;20.09;100.00;100688.75;5267883;28;20054;-48
2023/07/26 07:35:24;;;;;;;3.83;2.05;;;19.50;99.90;;;20.31;100.00;100693.00;5285580;27;20031;-49
2023/07/26 07:37:56;;;;;;;4.15;2.10;;;19.70;99.90;;;20.62;100.00;100684.88;5284373;27;20043;-49
2023/07/26 07:40:29;;;;;;;5.22;2.30;;;19.80;99.90;;;20.72;100.00;100691.84;5274549;28;20051;-50
2023/07/26 07:43:01;;;;;;;3.45;2.05;;;20.00;99.90;;;20.74;98.97;100687.44;5276167;28;20039;-49
2023/07/26 07:45:40;;;;;;;3.50;1.65;;;20.10;99.90;;;20.85;97.70;100692.63;5286938;27;20419;-49
2023/07/26 07:48:13;;;;;;;2.83;1.80;;;20.10;99.90;;;21.04;96.96;100698.63;5286875;27;20039;-49
2023/07/26 07:50:45;;;;;;;2.72;1.80;;;20.20;99.90;;;21.19;96.29;100693.19;5282429;27;20086;-49
2023/07/26 07:53:21;;;;;;;5.90;2.13;;;20.50;99.90;;;21.42;95.50;100684.13;5278334;27;20043;-49
2023/07/26 07:55:53;;;;;;;3.03;1.88;;;20.60;99.90;;;21.51;93.39;100689.31;5302296;27;20042;-52
2023/07/26 07:58:26;;;;;;;3.65;1.92;;;20.70;99.90;;;21.65;94.29;100688.28;5237322;28;20378;-51
2023/07/26 08:01:00;;;;;;;2.53;1.77;;;20.80;99.90;;;22.01;93.90;100691.34;5250145;28;20040;-52
2023/07/26 08:03:33;;;;;;;4.88;2.00;;;21.10;99.90;;;22.38;91.64;100693.50;5276402;28;20040;-52
2023/07/26 08:06:05;;;;;;;3.83;1.98;;;21.40;99.90;;;22.59;88.76;100697.59;5253850;28;20051;-51
2023/07/26 08:08:38;;;;;;;4.53;2.03;;;21.60;99.90;;;22.78;87.96;100696.38;5263056;28;20732;-52
2023/07/26 08:11:10;;;;;;;5.53;2.10;;;21.70;99.80;;;22.86;86.08;100694.50;5254339;28;20047;-51
2023/07/26 08:13:43;;;;;;;4.10;1.52;;;21.90;99.00;;;23.02;87.11;100696.00;5250442;28;20409;-51
2023/07/26 08:16:17;;;;;;;5.00;1.95;;;21.90;99.10;;;23.43;84.87;100690.81;5268509;28;20052;-51
2023/07/26 08:18:49;;;;;;;2.22;1.52;;;22.10;98.50;;;23.89;83.35;100701.41;5249329;28;20060;-52
2023/07/26 08:21:22;;;;;;;3.28;1.60;;;22.50;98.30;;;24.04;82.28;100690.41;5250388;28;20044;-51
2023/07/26 08:23:54;;;;;;;3.05;1.83;;;22.60;97.60;;;23.71;82.33;100696.47;5267262;28;20052;-50
2023/07/26 08:26:27;;;;;;;3.60;1.85;;;22.50;97.30;;;23.40;82.21;100691.72;5250630;28;20098;-51
2023/07/26 08:28:59;;;;;;;3.10;1.60;;;22.30;96.90;;;23.18;83.37;100685.09;5258930;28;20513;-52
2023/07/26 08:31:33;;;;;;;3.40;1.77;;;22.00;97.20;;;23.00;84.12;100697.78;5252160;28;20036;-51
2023/07/26 08:34:05;;;;;;;4.05;1.85;;;21.90;97.50;;;23.50;83.50;100687.13;5247005;28;20125;-51
2023/07/26 08:36:37;;;;;;;2.67;1.70;;;22.00;97.70;;;24.56;81.57;100689.25;5258171;28;20051;-51
2023/07/26 08:39:10;;;;;;;3.28;1.30;;;22.40;97.70;;;25.88;78.44;100686.56;5250718;28;20044;-51
2023/07/26 08:41:42;;;;;;;2.95;1.40;;;23.10;97.50;;;27.34;74.40;100685.38;5250448;28;20036;-52
2023/07/26 08:44:15;;;;;;;3.80;1.40;;;23.90;96.50;;;28.04;71.13;100688.13;5251333;28;20067;-52
2023/07/26 08:46:50;;;;;;;2.88;1.58;;;24.60;95.00;;;27.54;70.18;100677.50;5255547;28;20041;-51
2023/07/26 08:49:25;;;;;;;3.83;1.33;;;24.70;93.40;;;27.02;70.22;100683.81;5255570;28;20040;-50
2023/07/26 08:52:02;;;;;;;2.97;1.50;;;24.60;92.50;;;26.70;70.41;100683.13;5256654;28;20078;-50
2023/07/26 08:54:36;;;;;;;2.78;1.50;;;24.50;92.00;;;26.14;70.97;100693.78;5258514;28;20048;-51
2023/07/26 08:57:09;;;;;;;2.42;1.50;;;24.30;91.60;;;25.70;72.37;100682.66;5254763;28;20044;-51
2023/07/26 08:59:42;;;;;;;2.58;1.50;;;24.00;91.80;;;25.53;72.89;100676.91;5259400;28;20059;-50
2023/07/26 09:02:21;;;;;;;3.25;1.67;;;23.90;91.90;;;25.42;74.20;100671.00;5260575;28;20079;-52
2023/07/26 09:04:53;;;;;;;2.55;1.60;;;23.80;92.40;;;25.33;74.36;100676.59;5250107;28;20041;-52
2023/07/26 09:07:26;;;;;;;3.30;1.70;;;23.70;92.40;;;25.19;74.81;100681.44;5252748;28;20417;-51
2023/07/26 09:09:58;;;;;;;2.85;1.67;;;23.60;92.50;;;25.40;74.99;100678.19;5244820;28;20510;-51
2023/07/26 09:12:30;;;;;;;3.33;1.60;;;23.70;92.60;;;25.96;73.31;100670.34;5249112;28;20428;-51
2023/07/26 09:15:06;;;;;;;3.03;1.73;;;24.00;92.20;;;26.48;72.26;100668.72;5242325;28;20052;-51
2023/07/26 09:17:44;;;;;;;4.63;1.55;;;24.40;91.90;;;27.10;70.27;100659.50;5258193;28;20063;-51
2023/07/26 09:20:22;;;;;;;2.72;1.40;;;24.80;91.00;;;26.83;69.21;100667.53;5261739;28;20055;-52
2023/07/26 09:23:03;;;;;;;3.05;1.60;;;24.90;90.30;;;26.28;69.94;100673.78;5224247;28;21966;-51
2023/07/26 09:25:39;;;;;;;2.42;1.60;;;24.60;89.40;;;25.47;71.16;100658.41;5234668;28;20041;-50
2023/07/26 09:28:13;;;;;;;2.92;1.80;;;24.20;89.20;;;24.67;73.30;100674.78;5225442;28;20056;-51
2023/07/26 09:30:45;;;;;;;;;;;23.70;90.10;;;23.99;75.60;100665.69;5229982;28;20417;-51
2023/07/26 09:33:23;;;;;;;3.67;1.70;;;23.20;90.90;;;23.41;76.72;100664.25;5229456;28;20280;-51
2023/07/26 09:35:56;;;;;;;2.10;1.60;;;22.70;91.20;;;22.88;78.04;100660.78;5241366;28;20068;-51
2023/07/26 09:38:29;;;;;;;2.65;1.58;;;22.30;91.60;;;22.46;79.21;100655.28;5222873;28;20435;-52
2023/07/26 09:41:22;;;;;;;3.30;1.83;;;21.90;92.20;;;22.16;80.77;100658.41;5227370;28;20063;-50
2023/07/26 09:43:54;;;;;;;3.08;1.40;;;21.70;92.90;;;22.01;82.26;100651.53;5228456;28;20052;-50
2023/07/26 09:46:27;;;;;;;2.95;1.80;;;21.50;93.50;;;21.94;83.24;100657.81;5232407;28;20052;-51
2023/07/26 09:49:02;;;;;;;2.10;1.67;;;21.40;94.10;;;21.94;83.21;100641.91;5224612;28;20408;-50
2023/07/26 09:51:39;;;;;;;3.47;1.80;;;21.40;94.10;;;22.11;83.59;100649.66;5227708;28;20049;-50
2023/07/26 09:54:13;;;;;;;2.53;1.92;;;21.40;94.50;;;22.26;82.88;100649.41;5224316;28;20037;-50
2023/07/26 09:56:46;;;;;;;2.60;1.80;;;21.50;94.20;;;22.32;81.93;100653.75;5245315;28;20048;-50
2023/07/26 09:59:19;;;;;;;3.83;2.00;;;21.60;93.80;;;22.45;82.52;100650.00;5219626;28;20045;-50
2023/07/26 10:01:53;;;;;;;3.05;1.80;;;21.70;94.20;;;22.80;82.68;100652.06;5231564;28;20044;-50
2023/07/26 10:04:34;;;;;;;5.50;1.95;;;21.90;94.50;;;23.12;81.72;100655.94;5238909;28;20483;-50
2023/07/26 10:07:13;;;;;;;3.22;1.75;;;22.20;94.20;;;23.21;78.12;100654.00;5225133;28;20044;-51
2023/07/26 10:09:49;;;;;;;5.35;1.90;;;22.40;92.60;;;23.38;77.90;100643.00;5224242;28;20047;-51
2023/07/26 10:12:25;;;;;;;2.30;1.85;;;22.50;92.40;;;23.62;77.30;100643.47;5238347;28;20045;-51
2023/07/26 10:15:00;;;;;;;2.35;1.75;;;22.70;92.00;;;23.73;75.64;100647.63;5234013;28;20516;-51
2023/07/26 10:17:36;;;;;;;3.78;1.60;;;22.90;91.30;;;23.60;74.78;100646.09;5219387;28;20057;-50
2023/07/26 10:20:11;;;;;;;3.47;1.98;;;22.80;90.60;;;23.38;75.14;100642.13;5228723;28;20056;-51
2023/07/26 10:22:44;;;;;;;2.58;1.80;;;22.70;90.60;;;23.09;76.55;100642.72;5232199;28;20048;-51
2023/07/26 10:25:17;;;;;;;3.50;2.00;;;22.50;91.00;;;22.87;76.50;100647.53;5231995;28;20041;-50
2023/07/26 10:27:53;;;;;;;2.83;1.90;;;22.30;90.90;;;22.77;76.91;100644.16;5251646;28;20051;-50
2023/07/26 10:30:25;;;;;;;5.32;2.38;;;22.20;91.10;;;22.84;75.53;100643.13;5233465;28;20044;-50
2023/07/26 10:33:01;;;;;;;2.05;1.67;;;22.20;90.60;;;22.84;74.80;100647.56;5230733;28;20069;-51